LiveATC.Net - Listen to live air traffic control over the Internet! Contact for advertising information

ICAO: KFNT  IATA: FNT   Airport: Bishop International Airport
City: Flint   State/Province: Michigan
Country: United States   Continent: North America
KFNT METAR Weather: KFNT 301053Z 07005KT 9SM CLR M03/M06 A3031 RMK AO2 SLP273 T10281056
KFNT Flight Activity (FlightAware)
KFNT Airport Info   (AirNav) (iFlightPlanner)
KFNT VFR Sectional Chart   (iFlightPlanner) 
KFNT IFR Low Chart   (iFlightPlanner) 
KFNT Del/Gnd/Twr/App
Feed Status: DOWN
Last heard on: 2015-11-01 07:35:03 (29 days 4 hours 1 minutes ago)
KFNT Del/Gnd/Twr/App Audio Archives
Flint Approach118.800
Flint Approach (Final)133.800
Flint Clearance Delivery121.750
Flint Ground121.900
Flint Tower126.300


Unauthorized use prohibited. See Terms of Service

Find LiveATC Audio Streams

Airport/ARTCC Code

(e.g., 124.400, 128.75)
Site-wide search

Browse LiveATC Feeds
LiveATC Coverage Map
Top 50 LiveATC Feeds
Bad Weather Areas

Offer a LiveATC Feed
Press Inquiries

LiveATC on iPhone
LiveATC on Android

Windows Phone
Windows 8/10

LiveATC Mobile
(Mobile browser)

ATC Audio Archives
Interesting Recordings

LiveATC Forums

Home Page
Make a Donation
LiveATC Bookstore

Terms of Use
Privacy Policy

ATC/Radar Sites
U.S. ARTCC Freqs
Canadian Air Freqs


FAA Airport Status
Nat'l Airspace Status
Arrival Demand Charts

Server Software By:

Please make a donation to help us keep growing!